sensor_id;sensor_type;location;lat;lon;timestamp;pressure;altitude;pressure_sealevel;temperature;humidity
69622;BME280;56841;55.964;37.674;2023-04-27T00:02:03;98764.25;;;9.58;78.69
69622;BME280;56841;55.964;37.674;2023-04-27T00:04:29;98768.34;;;9.61;78.54
69622;BME280;56841;55.964;37.674;2023-04-27T00:06:55;98771.59;;;9.63;78.50
69622;BME280;56841;55.964;37.674;2023-04-27T00:09:21;98770.97;;;9.61;78.35
69622;BME280;56841;55.964;37.674;2023-04-27T00:11:46;98774.78;;;9.58;78.44
69622;BME280;56841;55.964;37.674;2023-04-27T00:14:12;98773.97;;;9.58;78.57
69622;BME280;56841;55.964;37.674;2023-04-27T00:16:38;98781.69;;;9.59;78.42
69622;BME280;56841;55.964;37.674;2023-04-27T00:19:03;98785.31;;;9.58;78.44
69622;BME280;56841;55.964;37.674;2023-04-27T00:21:29;98779.75;;;9.53;78.72
69622;BME280;56841;55.964;37.674;2023-04-27T00:23:56;98785.03;;;9.53;78.84
69622;BME280;56841;55.964;37.674;2023-04-27T00:26:21;98782.75;;;9.50;78.95
69622;BME280;56841;55.964;37.674;2023-04-27T00:28:49;98785.22;;;9.52;78.79
69622;BME280;56841;55.964;37.674;2023-04-27T00:31:15;98789.34;;;9.54;78.62
69622;BME280;56841;55.964;37.674;2023-04-27T00:33:41;98790.75;;;9.57;78.67
69622;BME280;56841;55.964;37.674;2023-04-27T00:36:07;98789.59;;;9.59;78.66
69622;BME280;56841;55.964;37.674;2023-04-27T00:38:33;98789.50;;;9.53;78.76
69622;BME280;56841;55.964;37.674;2023-04-27T00:41:03;98791.22;;;9.45;79.44
69622;BME280;56841;55.964;37.674;2023-04-27T00:43:29;98795.03;;;9.43;79.70
69622;BME280;56841;55.964;37.674;2023-04-27T00:45:55;98797.56;;;9.36;79.80
69622;BME280;56841;55.964;37.674;2023-04-27T00:48:21;98804.03;;;9.34;79.99
69622;BME280;56841;55.964;37.674;2023-04-27T00:50:47;98795.66;;;9.30;79.99
69622;BME280;56841;55.964;37.674;2023-04-27T00:53:14;98798.66;;;9.27;80.12
69622;BME280;56841;55.964;37.674;2023-04-27T00:55:41;98804.75;;;9.28;80.20
69622;BME280;56841;55.964;37.674;2023-04-27T00:58:07;98805.09;;;9.24;80.29
69622;BME280;56841;55.964;37.674;2023-04-27T01:00:35;98814.50;;;9.19;80.73
69622;BME280;56841;55.964;37.674;2023-04-27T01:03:01;98801.69;;;9.16;80.74
69622;BME280;56841;55.964;37.674;2023-04-27T01:05:29;98803.59;;;9.07;80.81
69622;BME280;56841;55.964;37.674;2023-04-27T01:07:55;98804.97;;;9.03;80.86
69622;BME280;56841;55.964;37.674;2023-04-27T01:10:20;98808.75;;;9.00;81.10
69622;BME280;56841;55.964;37.674;2023-04-27T01:12:46;98811.09;;;8.95;81.20
69622;BME280;56841;55.964;37.674;2023-04-27T01:15:12;98811.81;;;8.89;81.13
69622;BME280;56841;55.964;37.674;2023-04-27T01:17:38;98812.78;;;8.88;82.10
69622;BME280;56841;55.964;37.674;2023-04-27T01:20:04;98812.16;;;8.86;81.13
69622;BME280;56841;55.964;37.674;2023-04-27T01:22:32;98808.28;;;8.74;82.01
69622;BME280;56841;55.964;37.674;2023-04-27T01:24:57;98817.28;;;8.57;83.14
69622;BME280;56841;55.964;37.674;2023-04-27T01:27:23;98816.47;;;8.56;84.03
69622;BME280;56841;55.964;37.674;2023-04-27T01:29:49;98814.00;;;8.54;84.19
69622;BME280;56841;55.964;37.674;2023-04-27T01:32:15;98815.66;;;8.56;83.86
69622;BME280;56841;55.964;37.674;2023-04-27T01:34:41;98811.88;;;8.58;83.97
69622;BME280;56841;55.964;37.674;2023-04-27T01:37:07;98817.28;;;8.57;83.81
69622;BME280;56841;55.964;37.674;2023-04-27T01:39:33;98817.16;;;8.50;83.99
69622;BME280;56841;55.964;37.674;2023-04-27T01:41:59;98813.72;;;8.49;84.51
69622;BME280;56841;55.964;37.674;2023-04-27T01:44:24;98809.97;;;8.44;83.63
69622;BME280;56841;55.964;37.674;2023-04-27T01:46:50;98818.97;;;8.49;85.03
69622;BME280;56841;55.964;37.674;2023-04-27T01:49:16;98815.47;;;8.57;85.09
69622;BME280;56841;55.964;37.674;2023-04-27T01:51:42;98815.59;;;8.64;84.56
69622;BME280;56841;55.964;37.674;2023-04-27T01:54:07;98811.47;;;8.69;84.30
69622;BME280;56841;55.964;37.674;2023-04-27T01:56:35;98815.72;;;8.70;84.25
69622;BME280;56841;55.964;37.674;2023-04-27T01:59:00;98823.97;;;8.67;85.96
69622;BME280;56841;55.964;37.674;2023-04-27T02:01:26;98821.16;;;8.69;86.09
69622;BME280;56841;55.964;37.674;2023-04-27T02:03:52;98829.41;;;8.66;87.15
69622;BME280;56841;55.964;37.674;2023-04-27T02:06:18;98821.41;;;8.59;87.11
69622;BME280;56841;55.964;37.674;2023-04-27T02:08:44;98826.81;;;8.58;87.58
69622;BME280;56841;55.964;37.674;2023-04-27T02:11:10;98819.38;;;8.61;87.76
69622;BME280;56841;55.964;37.674;2023-04-27T02:13:36;98820.88;;;8.64;87.84
69622;BME280;56841;55.964;37.674;2023-04-27T02:16:02;98824.72;;;8.53;88.60
69622;BME280;56841;55.964;37.674;2023-04-27T02:18:29;98838.69;;;8.53;89.06
69622;BME280;56841;55.964;37.674;2023-04-27T02:20:57;98845.94;;;8.51;88.81
69622;BME280;56841;55.964;37.674;2023-04-27T02:23:23;98840.56;;;8.45;88.90
69622;BME280;56841;55.964;37.674;2023-04-27T02:25:48;98839.72;;;8.44;88.40
69622;BME280;56841;55.964;37.674;2023-04-27T02:28:14;98843.81;;;8.47;87.70
69622;BME280;56841;55.964;37.674;2023-04-27T02:30:40;98834.59;;;8.51;87.61
69622;BME280;56841;55.964;37.674;2023-04-27T02:33:06;98838.81;;;8.60;87.19
69622;BME280;56841;55.964;37.674;2023-04-27T02:35:32;98834.69;;;8.66;86.28
69622;BME280;56841;55.964;37.674;2023-04-27T02:37:58;98845.19;;;8.66;86.07
69622;BME280;56841;55.964;37.674;2023-04-27T02:40:24;98849.06;;;8.55;86.56
69622;BME280;56841;55.964;37.674;2023-04-27T02:42:50;98850.84;;;8.54;86.99
69622;BME280;56841;55.964;37.674;2023-04-27T02:45:19;98854.31;;;8.55;87.26
69622;BME280;56841;55.964;37.674;2023-04-27T02:47:44;98853.09;;;8.66;86.15
69622;BME280;56841;55.964;37.674;2023-04-27T02:50:12;98857.00;;;8.70;86.06
69622;BME280;56841;55.964;37.674;2023-04-27T02:52:38;98859.31;;;8.73;84.93
69622;BME280;56841;55.964;37.674;2023-04-27T02:55:04;98857.88;;;8.85;84.40
69622;BME280;56841;55.964;37.674;2023-04-27T02:57:30;98863.13;;;8.93;83.10
69622;BME280;56841;55.964;37.674;2023-04-27T02:59:56;98868.31;;;9.01;83.29
69622;BME280;56841;55.964;37.674;2023-04-27T03:02:22;98870.31;;;8.99;83.62
69622;BME280;56841;55.964;37.674;2023-04-27T03:04:51;98867.97;;;9.05;82.79
69622;BME280;56841;55.964;37.674;2023-04-27T03:07:18;98874.81;;;9.14;82.05
69622;BME280;56841;55.964;37.674;2023-04-27T03:09:43;98879.28;;;9.13;81.50
69622;BME280;56841;55.964;37.674;2023-04-27T03:12:09;98881.19;;;9.19;81.49
69622;BME280;56841;55.964;37.674;2023-04-27T03:14:34;98882.50;;;9.23;81.20
69622;BME280;56841;55.964;37.674;2023-04-27T03:17:00;98895.03;;;9.36;80.61
69622;BME280;56841;55.964;37.674;2023-04-27T03:19:27;98888.72;;;9.45;79.92
69622;BME280;56841;55.964;37.674;2023-04-27T03:21:56;98894.63;;;9.47;80.09
69622;BME280;56841;55.964;37.674;2023-04-27T03:24:21;98893.28;;;9.52;79.82
69622;BME280;56841;55.964;37.674;2023-04-27T03:26:50;98893.50;;;9.65;79.23
69622;BME280;56841;55.964;37.674;2023-04-27T03:29:17;98881.34;;;9.79;79.13
69622;BME280;56841;55.964;37.674;2023-04-27T03:31:43;98892.44;;;9.89;79.06
69622;BME280;56841;55.964;37.674;2023-04-27T03:34:09;98896.53;;;9.91;78.68
69622;BME280;56841;55.964;37.674;2023-04-27T03:36:37;98893.44;;;10.03;78.58
69622;BME280;56841;55.964;37.674;2023-04-27T03:39:03;98897.25;;;10.15;77.67
69622;BME280;56841;55.964;37.674;2023-04-27T03:41:29;98905.25;;;10.21;77.77
69622;BME280;56841;55.964;37.674;2023-04-27T03:43:54;98909.91;;;10.19;77.97
69622;BME280;56841;55.964;37.674;2023-04-27T03:46:20;98914.94;;;10.29;79.54
69622;BME280;56841;55.964;37.674;2023-04-27T03:48:46;98910.00;;;10.41;79.55
69622;BME280;56841;55.964;37.674;2023-04-27T03:51:12;98916.84;;;10.50;79.02
69622;BME280;56841;55.964;37.674;2023-04-27T03:53:41;98917.97;;;10.62;78.80
69622;BME280;56841;55.964;37.674;2023-04-27T03:56:07;98914.53;;;10.62;79.37
69622;BME280;56841;55.964;37.674;2023-04-27T03:58:33;98918.53;;;10.58;79.08
69622;BME280;56841;55.964;37.674;2023-04-27T04:01:19;98924.47;;;10.60;78.02
69622;BME280;56841;55.964;37.674;2023-04-27T04:03:46;98917.69;;;10.72;75.57
69622;BME280;56841;55.964;37.674;2023-04-27T04:06:12;98918.22;;;10.82;75.60
69622;BME280;56841;55.964;37.674;2023-04-27T04:08:38;98916.66;;;10.88;75.04
69622;BME280;56841;55.964;37.674;2023-04-27T04:11:04;98919.63;;;11.00;74.74
69622;BME280;56841;55.964;37.674;2023-04-27T04:13:30;98911.66;;;11.14;74.18
69622;BME280;56841;55.964;37.674;2023-04-27T04:16:07;98916.38;;;11.19;73.98
69622;BME280;56841;55.964;37.674;2023-04-27T04:18:34;98917.50;;;11.31;73.51
69622;BME280;56841;55.964;37.674;2023-04-27T04:21:00;98922.91;;;11.45;72.88
69622;BME280;56841;55.964;37.674;2023-04-27T04:23:25;98917.94;;;11.56;71.95
69622;BME280;56841;55.964;37.674;2023-04-27T04:25:53;98929.00;;;11.67;72.15
69622;BME280;56841;55.964;37.674;2023-04-27T04:28:22;98926.16;;;11.68;73.06
69622;BME280;56841;55.964;37.674;2023-04-27T04:30:49;98931.88;;;11.72;73.24
69622;BME280;56841;55.964;37.674;2023-04-27T04:33:16;98930.88;;;11.73;72.91
69622;BME280;56841;55.964;37.674;2023-04-27T04:35:42;98927.81;;;11.76;70.90
69622;BME280;56841;55.964;37.674;2023-04-27T04:38:09;98929.19;;;11.87;70.20
69622;BME280;56841;55.964;37.674;2023-04-27T04:40:37;98932.53;;;12.02;69.12
69622;BME280;56841;55.964;37.674;2023-04-27T04:43:03;98918.75;;;12.13;68.81
69622;BME280;56841;55.964;37.674;2023-04-27T04:45:29;98920.50;;;12.27;68.29
69622;BME280;56841;55.964;37.674;2023-04-27T04:47:56;98919.53;;;12.42;67.59
69622;BME280;56841;55.964;37.674;2023-04-27T04:50:23;98926.72;;;12.54;66.61
69622;BME280;56841;55.964;37.674;2023-04-27T04:52:49;98924.31;;;12.66;66.18
69622;BME280;56841;55.964;37.674;2023-04-27T04:55:15;98924.78;;;12.76;65.70
69622;BME280;56841;55.964;37.674;2023-04-27T04:57:42;98930.53;;;12.93;65.29
69622;BME280;56841;55.964;37.674;2023-04-27T05:00:08;98926.50;;;13.04;64.60
69622;BME280;56841;55.964;37.674;2023-04-27T05:02:38;98924.06;;;13.22;63.70
69622;BME280;56841;55.964;37.674;2023-04-27T05:05:05;98925.34;;;13.40;62.29
69622;BME280;56841;55.964;37.674;2023-04-27T05:07:32;98928.22;;;13.51;60.70
69622;BME280;56841;55.964;37.674;2023-04-27T05:09:58;98927.81;;;13.61;59.91
69622;BME280;56841;55.964;37.674;2023-04-27T05:12:23;98923.75;;;13.65;59.82
69622;BME280;56841;55.964;37.674;2023-04-27T05:14:50;98934.34;;;13.72;60.24
69622;BME280;56841;55.964;37.674;2023-04-27T05:17:16;98939.44;;;13.80;60.51
69622;BME280;56841;55.964;37.674;2023-04-27T05:19:42;98940.47;;;13.92;61.08
69622;BME280;56841;55.964;37.674;2023-04-27T05:22:07;98933.91;;;14.08;60.79
69622;BME280;56841;55.964;37.674;2023-04-27T05:24:33;98938.78;;;14.25;60.37
69622;BME280;56841;55.964;37.674;2023-04-27T05:26:59;98937.28;;;14.42;59.68
69622;BME280;56841;55.964;37.674;2023-04-27T05:29:25;98944.44;;;14.61;59.06
69622;BME280;56841;55.964;37.674;2023-04-27T05:31:52;98943.34;;;14.76;58.84
69622;BME280;56841;55.964;37.674;2023-04-27T05:34:18;98942.25;;;14.90;57.58
69622;BME280;56841;55.964;37.674;2023-04-27T05:36:44;98932.78;;;15.01;57.42
69622;BME280;56841;55.964;37.674;2023-04-27T05:39:13;98930.28;;;15.12;57.32
69622;BME280;56841;55.964;37.674;2023-04-27T05:41:39;98937.97;;;15.27;57.07
69622;BME280;56841;55.964;37.674;2023-04-27T05:44:05;98940.81;;;15.32;54.03
69622;BME280;56841;55.964;37.674;2023-04-27T05:46:31;98937.91;;;15.34;52.86
69622;BME280;56841;55.964;37.674;2023-04-27T05:48:57;98938.22;;;15.51;52.72
69622;BME280;56841;55.964;37.674;2023-04-27T05:51:23;98934.03;;;15.61;52.77
69622;BME280;56841;55.964;37.674;2023-04-27T05:53:49;98933.97;;;15.75;52.54
69622;BME280;56841;55.964;37.674;2023-04-27T05:56:15;98936.09;;;15.91;51.95
69622;BME280;56841;55.964;37.674;2023-04-27T05:58:41;98934.78;;;16.00;51.77
69622;BME280;56841;55.964;37.674;2023-04-27T06:01:07;98934.47;;;16.08;52.18
69622;BME280;56841;55.964;37.674;2023-04-27T06:03:33;98936.28;;;16.15;51.05
69622;BME280;56841;55.964;37.674;2023-04-27T06:05:59;98929.22;;;16.20;51.71
69622;BME280;56841;55.964;37.674;2023-04-27T06:08:26;98929.91;;;16.16;51.03
69622;BME280;56841;55.964;37.674;2023-04-27T06:10:52;98932.13;;;16.19;51.46
69622;BME280;56841;55.964;37.674;2023-04-27T06:13:18;98927.72;;;16.31;51.26
69622;BME280;56841;55.964;37.674;2023-04-27T06:15:45;98935.91;;;16.29;50.92
69622;BME280;56841;55.964;37.674;2023-04-27T06:18:11;98927.72;;;16.31;50.68
69622;BME280;56841;55.964;37.674;2023-04-27T06:20:37;98941.09;;;16.43;50.88
69622;BME280;56841;55.964;37.674;2023-04-27T06:23:03;98934.56;;;16.57;50.58
69622;BME280;56841;55.964;37.674;2023-04-27T06:25:29;98934.72;;;16.62;50.45
69622;BME280;56841;55.964;37.674;2023-04-27T06:27:55;98933.38;;;16.71;50.33
69622;BME280;56841;55.964;37.674;2023-04-27T06:30:22;98932.88;;;16.81;50.69
69622;BME280;56841;55.964;37.674;2023-04-27T06:32:48;98936.16;;;16.83;50.50
69622;BME280;56841;55.964;37.674;2023-04-27T06:35:14;98936.28;;;16.88;49.90
69622;BME280;56841;55.964;37.674;2023-04-27T06:37:40;98934.47;;;17.00;50.07
69622;BME280;56841;55.964;37.674;2023-04-27T06:40:06;98936.00;;;17.08;49.14
69622;BME280;56841;55.964;37.674;2023-04-27T06:42:33;98933.63;;;17.18;48.96
69622;BME280;56841;55.964;37.674;2023-04-27T06:44:59;98945.91;;;17.19;49.50
69622;BME280;56841;55.964;37.674;2023-04-27T06:47:25;98941.31;;;17.26;49.16
69622;BME280;56841;55.964;37.674;2023-04-27T06:49:50;98947.66;;;17.25;48.85
69622;BME280;56841;55.964;37.674;2023-04-27T06:52:16;98947.00;;;17.30;48.94
69622;BME280;56841;55.964;37.674;2023-04-27T06:54:42;98949.25;;;17.15;49.46
69622;BME280;56841;55.964;37.674;2023-04-27T06:57:07;98953.88;;;17.08;49.76
69622;BME280;56841;55.964;37.674;2023-04-27T06:59:33;98948.91;;;17.11;49.78
69622;BME280;56841;55.964;37.674;2023-04-27T07:01:59;98948.72;;;17.24;49.46
69622;BME280;56841;55.964;37.674;2023-04-27T07:04:25;98944.44;;;17.35;48.79
69622;BME280;56841;55.964;37.674;2023-04-27T07:06:51;98945.84;;;17.38;48.53
69622;BME280;56841;55.964;37.674;2023-04-27T07:09:17;98952.47;;;17.47;47.89
69622;BME280;56841;55.964;37.674;2023-04-27T07:11:43;98952.38;;;17.53;47.04
69622;BME280;56841;55.964;37.674;2023-04-27T07:14:09;98949.28;;;17.68;46.92
69622;BME280;56841;55.964;37.674;2023-04-27T07:16:35;98951.59;;;17.65;45.72
69622;BME280;56841;55.964;37.674;2023-04-27T07:19:01;98937.66;;;17.63;46.44
69622;BME280;56841;55.964;37.674;2023-04-27T07:21:26;98935.09;;;17.56;46.77
69622;BME280;56841;55.964;37.674;2023-04-27T07:23:53;98942.69;;;17.71;46.98
69622;BME280;56841;55.964;37.674;2023-04-27T07:26:20;98941.31;;;17.80;47.32
69622;BME280;56841;55.964;37.674;2023-04-27T07:28:50;98943.06;;;17.86;46.15
69622;BME280;56841;55.964;37.674;2023-04-27T07:31:15;98948.06;;;17.94;45.06
69622;BME280;56841;55.964;37.674;2023-04-27T07:33:42;98947.81;;;17.84;44.69
69622;BME280;56841;55.964;37.674;2023-04-27T07:36:07;98949.69;;;17.84;44.32
69622;BME280;56841;55.964;37.674;2023-04-27T07:38:33;98950.97;;;17.81;44.32
69622;BME280;56841;55.964;37.674;2023-04-27T07:41:00;98956.06;;;17.94;43.73
69622;BME280;56841;55.964;37.674;2023-04-27T07:43:27;98951.31;;;17.96;43.03
69622;BME280;56841;55.964;37.674;2023-04-27T07:45:53;98954.44;;;17.93;42.42
69622;BME280;56841;55.964;37.674;2023-04-27T07:48:20;98962.34;;;18.00;42.93
69622;BME280;56841;55.964;37.674;2023-04-27T07:50:46;98971.75;;;18.14;43.45
69622;BME280;56841;55.964;37.674;2023-04-27T07:53:12;98962.34;;;18.23;42.87
69622;BME280;56841;55.964;37.674;2023-04-27T07:55:38;98963.84;;;18.31;43.36
69622;BME280;56841;55.964;37.674;2023-04-27T07:58:04;98958.50;;;18.43;42.92
69622;BME280;56841;55.964;37.674;2023-04-27T08:00:30;98962.66;;;18.62;43.17
69622;BME280;56841;55.964;37.674;2023-04-27T08:02:56;98962.09;;;18.60;43.15
69622;BME280;56841;55.964;37.674;2023-04-27T08:05:21;98953.94;;;18.55;43.08
69622;BME280;56841;55.964;37.674;2023-04-27T08:07:47;98960.56;;;18.53;42.74
69622;BME280;56841;55.964;37.674;2023-04-27T08:10:14;98961.88;;;18.38;42.81
69622;BME280;56841;55.964;37.674;2023-04-27T08:12:40;98971.38;;;18.46;42.72
69622;BME280;56841;55.964;37.674;2023-04-27T08:15:06;98965.31;;;18.62;42.57
69622;BME280;56841;55.964;37.674;2023-04-27T08:17:32;98963.47;;;18.75;42.48
69622;BME280;56841;55.964;37.674;2023-04-27T08:19:58;98962.75;;;18.79;41.74
69622;BME280;56841;55.964;37.674;2023-04-27T08:22:24;98963.41;;;18.98;41.59
69622;BME280;56841;55.964;37.674;2023-04-27T08:24:50;98956.28;;;19.04;41.52
69622;BME280;56841;55.964;37.674;2023-04-27T08:27:16;98954.66;;;19.03;41.26
69622;BME280;56841;55.964;37.674;2023-04-27T08:29:48;98964.63;;;19.07;41.35
69622;BME280;56841;55.964;37.674;2023-04-27T08:32:14;98967.44;;;19.01;41.39
69622;BME280;56841;55.964;37.674;2023-04-27T08:34:40;98958.63;;;19.00;41.32
69622;BME280;56841;55.964;37.674;2023-04-27T08:37:06;98954.50;;;19.09;41.01
69622;BME280;56841;55.964;37.674;2023-04-27T08:39:33;98951.38;;;19.12;40.56
69622;BME280;56841;55.964;37.674;2023-04-27T08:41:58;98948.69;;;19.12;40.14
69622;BME280;56841;55.964;37.674;2023-04-27T08:44:24;98952.63;;;19.22;40.35
69622;BME280;56841;55.964;37.674;2023-04-27T08:46:50;98950.81;;;19.27;40.17
69622;BME280;56841;55.964;37.674;2023-04-27T08:49:16;98952.66;;;19.38;40.31
69622;BME280;56841;55.964;37.674;2023-04-27T08:51:42;98940.09;;;19.56;41.07
69622;BME280;56841;55.964;37.674;2023-04-27T08:54:08;98947.91;;;19.74;40.51
69622;BME280;56841;55.964;37.674;2023-04-27T08:56:34;98948.66;;;19.86;39.89
69622;BME280;56841;55.964;37.674;2023-04-27T08:59:00;98946.84;;;19.92;40.24
69622;BME280;56841;55.964;37.674;2023-04-27T09:01:29;98947.00;;;19.69;38.80
69622;BME280;56841;55.964;37.674;2023-04-27T09:03:57;98947.16;;;19.79;38.29
69622;BME280;56841;55.964;37.674;2023-04-27T09:06:33;98939.38;;;19.77;38.14
69622;BME280;56841;55.964;37.674;2023-04-27T09:09:00;98940.44;;;19.76;38.00
69622;BME280;56841;55.964;37.674;2023-04-27T09:11:37;98942.72;;;19.68;38.27
69622;BME280;56841;55.964;37.674;2023-04-27T09:14:16;98941.31;;;19.65;38.62
69622;BME280;56841;55.964;37.674;2023-04-27T09:16:42;98947.00;;;19.85;38.24
69622;BME280;56841;55.964;37.674;2023-04-27T09:19:09;98943.13;;;19.93;37.76
69622;BME280;56841;55.964;37.674;2023-04-27T09:21:34;98946.69;;;19.99;38.20
69622;BME280;56841;55.964;37.674;2023-04-27T09:24:10;98941.97;;;20.06;37.92
69622;BME280;56841;55.964;37.674;2023-04-27T09:26:39;98940.97;;;20.12;37.42
69622;BME280;56841;55.964;37.674;2023-04-27T09:29:07;98937.84;;;19.98;37.61
69622;BME280;56841;55.964;37.674;2023-04-27T09:31:34;98941.47;;;20.09;37.46
69622;BME280;56841;55.964;37.674;2023-04-27T09:34:00;98936.88;;;20.26;37.75
69622;BME280;56841;55.964;37.674;2023-04-27T09:36:28;98934.28;;;20.31;37.77
69622;BME280;56841;55.964;37.674;2023-04-27T09:38:55;98933.72;;;20.29;37.62
69622;BME280;56841;55.964;37.674;2023-04-27T09:41:21;98937.56;;;20.17;37.49
69622;BME280;56841;55.964;37.674;2023-04-27T09:43:48;98920.56;;;20.28;37.62
69622;BME280;56841;55.964;37.674;2023-04-27T09:46:14;98926.75;;;20.28;37.66
69622;BME280;56841;55.964;37.674;2023-04-27T09:48:40;98936.16;;;20.31;37.68
69622;BME280;56841;55.964;37.674;2023-04-27T09:51:06;98926.13;;;20.43;37.74
69622;BME280;56841;55.964;37.674;2023-04-27T09:53:53;98922.13;;;20.46;38.10
69622;BME280;56841;55.964;37.674;2023-04-27T10:01:56;98933.88;;;20.83;37.29
69622;BME280;56841;55.964;37.674;2023-04-27T10:07:12;98919.38;;;21.34;36.70
69622;BME280;56841;55.964;37.674;2023-04-27T10:09:49;98918.88;;;21.37;36.83
69622;BME280;56841;55.964;37.674;2023-04-27T10:12:33;98928.78;;;21.63;36.29
69622;BME280;56841;55.964;37.674;2023-04-27T10:15:12;98925.88;;;21.70;35.90
69622;BME280;56841;55.964;37.674;2023-04-27T10:17:38;98923.31;;;21.53;35.92
69622;BME280;56841;55.964;37.674;2023-04-27T10:20:11;98931.53;;;21.68;35.66
69622;BME280;56841;55.964;37.674;2023-04-27T10:25:27;98919.16;;;21.35;36.20
69622;BME280;56841;55.964;37.674;2023-04-27T10:28:01;98920.69;;;21.58;36.47
69622;BME280;56841;55.964;37.674;2023-04-27T10:30:32;98910.50;;;21.33;36.21
69622;BME280;56841;55.964;37.674;2023-04-27T10:33:03;98918.00;;;21.58;36.26
69622;BME280;56841;55.964;37.674;2023-04-27T10:35:33;98911.13;;;21.72;36.48
69622;BME280;56841;55.964;37.674;2023-04-27T10:38:17;98904.06;;;22.04;35.85
69622;BME280;56841;55.964;37.674;2023-04-27T10:40:44;98898.97;;;22.02;35.83
69622;BME280;56841;55.964;37.674;2023-04-27T10:43:12;98895.84;;;21.78;34.84
69622;BME280;56841;55.964;37.674;2023-04-27T10:45:39;98898.84;;;21.82;35.14
69622;BME280;56841;55.964;37.674;2023-04-27T10:48:05;98904.09;;;21.66;34.86
69622;BME280;56841;55.964;37.674;2023-04-27T10:50:32;98896.25;;;21.60;33.17
69622;BME280;56841;55.964;37.674;2023-04-27T10:53:05;98904.78;;;21.51;33.05
69622;BME280;56841;55.964;37.674;2023-04-27T10:55:32;98903.38;;;21.44;36.29
69622;BME280;56841;55.964;37.674;2023-04-27T10:57:58;98909.06;;;21.20;37.12
69622;BME280;56841;55.964;37.674;2023-04-27T11:00:32;98907.78;;;21.28;37.55
69622;BME280;56841;55.964;37.674;2023-04-27T11:05:36;98911.00;;;21.94;37.12
69622;BME280;56841;55.964;37.674;2023-04-27T11:08:09;98907.38;;;21.73;37.63
69622;BME280;56841;55.964;37.674;2023-04-27T11:10:44;98901.75;;;21.80;36.74
69622;BME280;56841;55.964;37.674;2023-04-27T11:13:22;98903.28;;;22.08;36.38
69622;BME280;56841;55.964;37.674;2023-04-27T11:15:49;98902.72;;;22.01;35.78
69622;BME280;56841;55.964;37.674;2023-04-27T11:18:17;98905.38;;;21.96;35.11
69622;BME280;56841;55.964;37.674;2023-04-27T11:20:45;98900.59;;;22.03;35.68
69622;BME280;56841;55.964;37.674;2023-04-27T11:23:29;98910.53;;;21.65;36.23
69622;BME280;56841;55.964;37.674;2023-04-27T11:26:09;98906.06;;;21.17;37.17
69622;BME280;56841;55.964;37.674;2023-04-27T11:28:35;98905.84;;;20.96;37.92
69622;BME280;56841;55.964;37.674;2023-04-27T11:31:02;98919.19;;;21.13;38.52
69622;BME280;56841;55.964;37.674;2023-04-27T11:33:29;98919.19;;;21.13;38.44
69622;BME280;56841;55.964;37.674;2023-04-27T11:35:55;98912.47;;;20.89;38.69
69622;BME280;56841;55.964;37.674;2023-04-27T11:38:21;98923.44;;;20.43;39.89
69622;BME280;56841;55.964;37.674;2023-04-27T11:41:04;98923.03;;;20.73;39.54
69622;BME280;56841;55.964;37.674;2023-04-27T11:43:31;98920.00;;;21.14;39.52
69622;BME280;56841;55.964;37.674;2023-04-27T11:46:00;98919.28;;;21.50;40.13
69622;BME280;56841;55.964;37.674;2023-04-27T11:48:28;98911.50;;;21.86;41.28
69622;BME280;56841;55.964;37.674;2023-04-27T11:50:57;98912.75;;;21.41;38.40
69622;BME280;56841;55.964;37.674;2023-04-27T11:53:37;98910.19;;;21.29;37.09
69622;BME280;56841;55.964;37.674;2023-04-27T11:56:05;98925.09;;;21.37;37.59
69622;BME280;56841;55.964;37.674;2023-04-27T11:58:36;98916.75;;;21.12;36.84
69622;BME280;56841;55.964;37.674;2023-04-27T12:01:03;98920.50;;;21.11;38.98
69622;BME280;56841;55.964;37.674;2023-04-27T12:03:29;98922.31;;;21.05;38.94
69622;BME280;56841;55.964;37.674;2023-04-27T12:05:56;98920.38;;;21.00;39.10
69622;BME280;56841;55.964;37.674;2023-04-27T12:08:22;98916.03;;;21.21;39.59
69622;BME280;56841;55.964;37.674;2023-04-27T12:10:48;98924.38;;;21.25;39.74
69622;BME280;56841;55.964;37.674;2023-04-27T12:13:14;98927.97;;;21.09;40.02
69622;BME280;56841;55.964;37.674;2023-04-27T12:15:40;98923.09;;;21.05;40.05
69622;BME280;56841;55.964;37.674;2023-04-27T12:18:07;98933.00;;;21.27;39.39
69622;BME280;56841;55.964;37.674;2023-04-27T12:20:33;98906.84;;;22.71;36.29
69622;BME280;56841;55.964;37.674;2023-04-27T12:22:59;98924.28;;;23.73;34.62
69622;BME280;56841;55.964;37.674;2023-04-27T12:25:25;98922.53;;;24.48;33.58
69622;BME280;56841;55.964;37.674;2023-04-27T12:27:51;98929.00;;;24.52;32.94
69622;BME280;56841;55.964;37.674;2023-04-27T12:30:17;98933.94;;;23.33;34.61
69622;BME280;56841;55.964;37.674;2023-04-27T12:32:43;98942.00;;;22.50;35.87
69622;BME280;56841;55.964;37.674;2023-04-27T12:35:09;98932.06;;;22.08;36.37
69622;BME280;56841;55.964;37.674;2023-04-27T12:37:35;98930.88;;;21.88;36.76
69622;BME280;56841;55.964;37.674;2023-04-27T12:40:02;98936.53;;;22.97;35.39
69622;BME280;56841;55.964;37.674;2023-04-27T12:42:34;98917.66;;;22.87;35.44
69622;BME280;56841;55.964;37.674;2023-04-27T12:45:00;98928.47;;;21.92;37.11
69622;BME280;56841;55.964;37.674;2023-04-27T12:47:26;98929.63;;;23.22;35.70
69622;BME280;56841;55.964;37.674;2023-04-27T12:49:52;98922.75;;;24.57;33.22
69622;BME280;56841;55.964;37.674;2023-04-27T12:52:18;98920.66;;;25.48;31.90
69622;BME280;56841;55.964;37.674;2023-04-27T12:54:44;98923.06;;;26.13;30.92
69622;BME280;56841;55.964;37.674;2023-04-27T12:57:11;98921.50;;;26.79;30.25
69622;BME280;56841;55.964;37.674;2023-04-27T12:59:37;98909.50;;;27.04;29.71
69622;BME280;56841;55.964;37.674;2023-04-27T13:02:03;98916.38;;;26.96;29.80
69622;BME280;56841;55.964;37.674;2023-04-27T13:04:30;98912.75;;;27.25;29.14
69622;BME280;56841;55.964;37.674;2023-04-27T13:06:57;98912.47;;;27.59;29.05